Time,TemperatureF,DewpointF,PressureIn,WindDirection,WindDirectionDegrees,WindSpeedMPH,WindSpeedGustMPH,Humidity,HourlyPrecipIn,Conditions,Clouds,dailyrainin,SoftwareType,DateUTC
2013-03-02 00:00:00,46.2,28.1,30.28,North,355,0.0,3.0,49,0.00,,,0.00,WeatherCatV1.14B232,2013-03-02 06:00:00,
2013-03-02 00:05:00,46.7,28.6,30.29,NNW,338,0.0,1.0,49,0.00,,,0.00,WeatherCatV1.14B232,2013-03-02 06:05:00,
2013-03-02 00:10:00,47.6,29.4,30.29,North,5,0.0,2.0,49,0.00,,,0.00,WeatherCatV1.14B232,2013-03-02 06:10:00,
2013-03-02 00:15:00,48.1,29.3,30.30,NNW,345,0.0,3.0,48,0.00,,,0.00,WeatherCatV1.14B232,2013-03-02 06:15:00,
2013-03-02 00:20:00,48.3,29.5,30.30,NW,311,0.0,1.0,48,0.00,,,0.00,WeatherCatV1.14B232,2013-03-02 06:20:00,
2013-03-02 00:25:00,48.3,30.0,30.30,NW,315,0.0,3.0,49,0.00,,,0.00,WeatherCatV1.14B232,2013-03-02 06:25:00,
2013-03-02 00:30:00,48.3,30.0,30.30,NNW,345,0.0,1.0,49,0.00,,,0.00,WeatherCatV1.14B232,2013-03-02 06:30:00,
2013-03-02 00:35:00,48.3,30.0,30.31,NNW,346,0.0,3.0,49,0.00,,,0.00,WeatherCatV1.14B232,2013-03-02 06:35:00,
2013-03-02 00:40:00,48.3,30.0,30.31,NNW,338,0.0,3.0,49,0.00,,,0.00,WeatherCatV1.14B232,2013-03-02 06:40:00,
2013-03-02 00:45:00,48.0,29.8,30.30,NNW,338,0.0,1.0,49,0.00,,,0.00,WeatherCatV1.14B232,2013-03-02 06:45:00,
2013-03-02 00:50:00,47.6,29.4,30.30,NNW,338,0.0,0.0,49,0.00,,,0.00,WeatherCatV1.14B232,2013-03-02 06:50:00,
2013-03-02 00:55:00,47.0,28.8,30.30,NNW,338,0.0,0.0,49,0.00,,,0.00,WeatherCatV1.14B232,2013-03-02 06:55:00,
2013-03-02 01:00:00,45.7,27.6,30.30,NNW,338,0.0,0.0,49,0.00,,,0.00,WeatherCatV1.14B232,2013-03-02 07:00:00,
2013-03-02 01:05:00,44.4,27.9,30.31,NNW,338,0.0,0.0,52,0.00,,,0.00,WeatherCatV1.14B232,2013-03-02 07:05:00,
2013-03-02 01:10:00,43.3,27.3,30.31,NNW,338,0.0,0.0,53,0.00,,,0.00,WeatherCatV1.14B232,2013-03-02 07:10:00,
2013-03-02 01:15:00,42.3,26.4,30.30,NNW,338,0.0,0.0,53,0.00,,,0.00,WeatherCatV1.14B232,2013-03-02 07:15:00,
2013-03-02 01:20:00,41.4,27.3,30.30,NNW,338,0.0,0.0,57,0.00,,,0.00,WeatherCatV1.14B232,2013-03-02 07:20:00,
2013-03-02 01:25:00,40.6,27.0,30.31,NNW,338,0.0,0.0,58,0.00,,,0.00,WeatherCatV1.14B232,2013-03-02 07:25:00,
2013-03-02 01:30:00,39.9,27.2,30.31,NNW,338,0.0,0.0,60,0.00,,,0.00,WeatherCatV1.14B232,2013-03-02 07:30:00,
2013-03-02 01:35:00,39.3,27.0,30.31,NNW,338,0.0,0.0,61,0.00,,,0.00,WeatherCatV1.14B232,2013-03-02 07:35:00,
2013-03-02 01:40:00,38.7,26.4,30.31,NNW,338,0.0,0.0,61,0.00,,,0.00,WeatherCatV1.14B232,2013-03-02 07:40:00,
2013-03-02 01:45:00,38.1,25.9,30.31,NNW,338,0.0,0.0,61,0.00,,,0.00,WeatherCatV1.14B232,2013-03-02 07:45:00,
2013-03-02 01:50:00,37.6,25.0,30.32,NNW,338,0.0,0.0,60,0.00,,,0.00,WeatherCatV1.14B232,2013-03-02 07:50:00,
2013-03-02 01:55:00,37.2,25.0,30.32,NNW,338,0.0,0.0,61,0.00,,,0.00,WeatherCatV1.14B232,2013-03-02 07:55:00,
2013-03-02 02:00:00,36.9,24.7,30.31,NNW,338,0.0,0.0,61,0.00,,,0.00,WeatherCatV1.14B232,2013-03-02 08:00:00,
2013-03-02 02:05:00,36.6,24.8,30.32,NNW,338,0.0,0.0,62,0.00,,,0.00,WeatherCatV1.14B232,2013-03-02 08:05:00,
2013-03-02 02:10:00,36.6,25.6,30.31,NNW,338,0.0,0.0,64,0.00,,,0.00,WeatherCatV1.14B232,2013-03-02 08:10:00,
2013-03-02 02:15:00,36.5,25.5,30.31,NNW,338,0.0,0.0,64,0.00,,,0.00,WeatherCatV1.14B232,2013-03-02 08:15:00,
2013-03-02 02:20:00,36.4,25.4,30.31,NNW,338,0.0,0.0,64,0.00,,,0.00,WeatherCatV1.14B232,2013-03-02 08:20:00,
2013-03-02 02:25:00,36.1,25.1,30.31,NNW,338,0.0,0.0,64,0.00,,,0.00,WeatherCatV1.14B232,2013-03-02 08:25:00,
2013-03-02 02:30:00,35.9,25.3,30.31,NNW,338,0.0,0.0,65,0.00,,,0.00,WeatherCatV1.14B232,2013-03-02 08:30:00,
2013-03-02 02:35:00,35.7,25.5,30.31,NNW,338,0.0,0.0,66,0.00,,,0.00,WeatherCatV1.14B232,2013-03-02 08:35:00,
2013-03-02 02:40:00,35.4,25.2,30.31,NNW,338,0.0,0.0,66,0.00,,,0.00,WeatherCatV1.14B232,2013-03-02 08:40:00,
2013-03-02 02:45:00,35.8,26.3,30.31,NNW,338,0.0,1.0,68,0.00,,,0.00,WeatherCatV1.14B232,2013-03-02 08:45:00,
2013-03-02 02:50:00,37.2,27.6,30.31,NNW,338,0.0,2.0,68,0.00,,,0.00,WeatherCatV1.14B232,2013-03-02 08:50:00,
2013-03-02 02:55:00,39.2,28.4,30.31,NNW,338,0.0,3.0,65,0.00,,,0.00,WeatherCatV1.14B232,2013-03-02 08:55:00,
2013-03-02 03:00:00,40.9,28.9,30.31,NNW,338,0.0,4.0,62,0.00,,,0.00,WeatherCatV1.14B232,2013-03-02 09:00:00,
2013-03-02 03:05:00,42.1,28.8,30.31,NNW,338,2.0,3.0,59,0.00,,,0.00,WeatherCatV1.14B232,2013-03-02 09:05:00,
2013-03-02 03:10:00,42.9,28.7,30.30,NNW,340,0.0,1.0,57,0.00,,,0.00,WeatherCatV1.14B232,2013-03-02 09:10:00,
2013-03-02 03:15:00,43.4,28.8,30.31,NNW,342,0.0,1.0,56,0.00,,,0.00,WeatherCatV1.14B232,2013-03-02 09:15:00,
2013-03-02 03:20:00,43.6,29.0,30.31,NNW,342,0.0,2.0,56,0.00,,,0.00,WeatherCatV1.14B232,2013-03-02 09:20:00,
2013-03-02 03:25:00,43.7,28.6,30.31,NNW,342,0.0,2.0,55,0.00,,,0.00,WeatherCatV1.14B232,2013-03-02 09:25:00,
2013-03-02 03:30:00,43.7,28.6,30.30,NNW,342,0.0,3.0,55,0.00,,,0.00,WeatherCatV1.14B232,2013-03-02 09:30:00,
2013-03-02 03:35:00,43.6,28.5,30.30,NNW,342,0.0,1.0,55,0.00,,,0.00,WeatherCatV1.14B232,2013-03-02 09:35:00,
2013-03-02 03:40:00,43.4,28.3,30.30,NNW,342,2.0,2.0,55,0.00,,,0.00,WeatherCatV1.14B232,2013-03-02 09:40:00,
2013-03-02 03:45:00,43.1,28.0,30.30,NNW,343,0.0,0.0,55,0.00,,,0.00,WeatherCatV1.14B232,2013-03-02 09:45:00,
2013-03-02 03:50:00,42.9,28.3,30.30,NNW,343,0.0,0.0,56,0.00,,,0.00,WeatherCatV1.14B232,2013-03-02 09:50:00,
2013-03-02 03:55:00,42.7,28.1,30.30,NNW,342,2.0,2.0,56,0.00,,,0.00,WeatherCatV1.14B232,2013-03-02 09:55:00,
2013-03-02 04:00:00,42.5,27.9,30.30,NNW,338,1.0,4.0,56,0.00,,,0.00,WeatherCatV1.14B232,2013-03-02 10:00:00,
2013-03-02 04:05:00,42.4,27.8,30.31,NNW,338,2.0,2.0,56,0.00,,,0.00,WeatherCatV1.14B232,2013-03-02 10:05:00,
2013-03-02 04:07:00,42.3,28.2,30.31,NNW,338,0.0,3.0,57,0.00,,,0.00,WeatherCatV1.14B232,2013-03-02 10:07:00,
2013-03-02 04:08:00,42.3,28.2,30.31,NNW,337,0.0,3.0,57,0.00,,,0.00,WeatherCatV1.14B232,2013-03-02 10:08:00,
2013-03-02 04:10:00,34.2,24.4,30.33,NNW,336,0.0,0.0,67,0.00,,,0.00,WeatherCatV1.24B11,2013-03-02 10:10:00,
2013-03-02 04:13:00,42.0,27.9,30.31,NNW,336,0.0,0.0,57,0.00,,,0.00,WeatherCatV1.14B232,2013-03-02 10:13:00,
2013-03-02 04:15:00,33.8,24.4,30.33,NNW,336,0.0,0.0,68,0.00,,,0.00,WeatherCatV1.24B11,2013-03-02 10:15:00,
2013-03-02 04:18:00,41.7,27.6,30.31,NNW,336,1.0,1.0,57,0.00,,,0.00,WeatherCatV1.14B232,2013-03-02 10:18:00,
2013-03-02 04:20:00,33.3,23.9,30.34,NNW,336,0.0,0.0,68,0.00,,,0.00,WeatherCatV1.24B11,2013-03-02 10:20:00,
2013-03-02 04:23:00,41.2,27.6,30.32,NNW,336,0.0,0.0,58,0.00,,,0.00,WeatherCatV1.14B232,2013-03-02 10:23:00,
2013-03-02 04:25:00,32.9,23.9,30.34,NNW,336,0.0,0.0,69,0.00,,,0.00,WeatherCatV1.24B11,2013-03-02 10:25:00,
2013-03-02 04:28:00,40.8,27.2,30.32,NNW,336,0.0,1.0,58,0.00,,,0.00,WeatherCatV1.14B232,2013-03-02 10:28:00,
2013-03-02 04:30:00,32.6,23.9,30.34,NNW,336,0.0,0.0,70,0.00,,,0.00,WeatherCatV1.24B11,2013-03-02 10:30:00,
2013-03-02 04:33:00,40.2,27.0,30.32,NNW,336,0.0,0.0,59,0.00,,,0.00,WeatherCatV1.14B232,2013-03-02 10:33:00,
2013-03-02 04:35:00,32.4,24.1,30.34,NNW,336,0.0,0.0,71,0.00,,,0.00,WeatherCatV1.24B11,2013-03-02 10:35:00,
2013-03-02 04:38:00,39.3,26.2,30.32,NNW,336,0.0,0.0,59,0.00,,,0.00,WeatherCatV1.14B232,2013-03-02 10:38:00,
2013-03-02 04:40:00,32.2,23.9,30.34,NNW,336,0.0,0.0,71,0.00,,,0.00,WeatherCatV1.24B11,2013-03-02 10:40:00,
2013-03-02 04:43:00,38.5,26.2,30.32,NNW,336,0.0,0.0,61,0.00,,,0.00,WeatherCatV1.14B232,2013-03-02 10:43:00,
2013-03-02 04:45:00,32.1,23.8,30.35,NNW,336,0.0,0.0,71,0.00,,,0.00,WeatherCatV1.24B11,2013-03-02 10:45:00,
2013-03-02 04:48:00,38.1,26.2,30.33,NNW,336,0.0,0.0,62,0.00,,,0.00,WeatherCatV1.14B232,2013-03-02 10:48:00,
2013-03-02 04:50:00,31.9,23.6,30.35,NNW,336,0.0,0.0,71,0.00,,,0.00,WeatherCatV1.24B11,2013-03-02 10:50:00,
2013-03-02 04:53:00,37.7,26.6,30.33,NNW,336,0.0,0.0,64,0.00,,,0.00,WeatherCatV1.14B232,2013-03-02 10:53:00,
2013-03-02 04:55:00,31.6,23.6,30.35,NNW,336,0.0,0.0,72,0.00,,,0.00,WeatherCatV1.24B11,2013-03-02 10:55:00,
2013-03-02 04:58:00,37.4,26.4,30.33,NNW,336,0.0,0.0,64,0.00,,,0.00,WeatherCatV1.14B232,2013-03-02 10:58:00,
2013-03-02 05:00:00,31.5,23.9,30.35,NNW,336,0.0,0.0,73,0.00,,,0.00,WeatherCatV1.24B11,2013-03-02 11:00:00,
2013-03-02 05:03:00,36.7,26.1,30.33,NNW,336,0.0,0.0,65,0.00,,,0.00,WeatherCatV1.14B232,2013-03-02 11:03:00,
2013-03-02 05:05:00,31.7,24.4,30.36,NNW,336,0.0,0.0,74,0.00,,,0.00,WeatherCatV1.24B11,2013-03-02 11:05:00,
2013-03-02 05:08:00,36.0,25.4,30.33,NNW,336,0.0,0.0,65,0.00,,,0.00,WeatherCatV1.14B232,2013-03-02 11:08:00,
2013-03-02 05:10:00,31.7,24.4,30.36,NNW,336,0.0,0.0,74,0.00,,,0.00,WeatherCatV1.24B11,2013-03-02 11:10:00,
2013-03-02 05:13:00,35.3,25.1,30.33,NNW,336,0.0,0.0,66,0.00,,,0.00,WeatherCatV1.14B232,2013-03-02 11:13:00,
2013-03-02 05:15:00,31.4,24.1,30.37,NNW,336,0.0,0.0,74,0.00,,,0.00,WeatherCatV1.24B11,2013-03-02 11:15:00,
2013-03-02 05:18:00,34.8,24.6,30.33,NNW,336,0.0,0.0,66,0.00,,,0.00,WeatherCatV1.14B232,2013-03-02 11:18:00,
2013-03-02 05:20:00,31.1,23.8,30.37,NNW,336,0.0,0.0,74,0.00,,,0.00,WeatherCatV1.24B11,2013-03-02 11:20:00,
2013-03-02 05:23:00,34.4,24.6,30.33,NNW,336,0.0,0.0,67,0.00,,,0.00,WeatherCatV1.14B232,2013-03-02 11:23:00,
2013-03-02 05:25:00,30.9,23.6,30.37,NNW,336,0.0,0.0,74,0.00,,,0.00,WeatherCatV1.24B11,2013-03-02 11:25:00,
2013-03-02 05:28:00,33.9,24.1,30.33,NNW,336,0.0,0.0,67,0.00,,,0.00,WeatherCatV1.14B232,2013-03-02 11:28:00,
2013-03-02 05:30:00,30.7,23.4,30.38,NNW,336,0.0,0.0,74,0.00,,,0.00,WeatherCatV1.24B11,2013-03-02 11:30:00,
2013-03-02 05:33:00,33.5,24.1,30.34,NNW,336,0.0,0.0,68,0.00,,,0.00,WeatherCatV1.14B232,2013-03-02 11:33:00,
2013-03-02 05:35:00,30.6,23.6,30.38,NNW,336,0.0,0.0,75,0.00,,,0.00,WeatherCatV1.24B11,2013-03-02 11:35:00,
2013-03-02 05:38:00,33.1,24.1,30.34,NNW,336,0.0,0.0,69,0.00,,,0.00,WeatherCatV1.14B232,2013-03-02 11:38:00,
2013-03-02 05:40:00,31.2,24.8,30.38,NNW,336,0.0,0.0,77,0.00,,,0.00,WeatherCatV1.24B11,2013-03-02 11:40:00,
2013-03-02 05:43:00,32.8,24.1,30.34,NNW,336,0.0,0.0,70,0.00,,,0.00,WeatherCatV1.14B232,2013-03-02 11:43:00,
2013-03-02 05:45:00,32.2,27.6,30.38,NNW,336,0.0,0.0,83,0.00,,,0.00,WeatherCatV1.24B11,2013-03-02 11:45:00,
2013-03-02 05:48:00,32.5,23.8,30.34,NNW,336,0.0,0.0,70,0.00,,,0.00,WeatherCatV1.14B232,2013-03-02 11:48:00,
2013-03-02 05:50:00,33.0,26.6,30.39,NNW,336,0.0,0.0,77,0.00,,,0.00,WeatherCatV1.24B11,2013-03-02 11:50:00,
2013-03-02 05:53:00,32.4,24.1,30.34,NNW,336,0.0,0.0,71,0.00,,,0.00,WeatherCatV1.14B232,2013-03-02 11:53:00,
2013-03-02 05:55:00,33.6,26.9,30.39,NNW,336,0.0,0.0,76,0.00,,,0.00,WeatherCatV1.24B11,2013-03-02 11:55:00,
2013-03-02 05:58:00,32.1,23.8,30.35,NNW,336,0.0,0.0,71,0.00,,,0.00,WeatherCatV1.14B232,2013-03-02 11:58:00,
2013-03-02 06:00:00,33.9,26.8,30.39,NNW,336,0.0,0.0,75,0.00,,,0.00,WeatherCatV1.24B11,2013-03-02 12:00:00,
2013-03-02 06:03:00,31.9,23.6,30.35,NNW,336,0.0,0.0,71,0.00,,,0.00,WeatherCatV1.14B232,2013-03-02 12:03:00,
2013-03-02 06:05:00,34.3,27.2,30.39,NNW,336,0.0,0.0,75,0.00,,,0.00,WeatherCatV1.24B11,2013-03-02 12:05:00,
2013-03-02 06:08:00,31.7,23.4,30.35,NNW,336,0.0,0.0,71,0.00,,,0.00,WeatherCatV1.14B232,2013-03-02 12:08:00,
2013-03-02 06:10:00,35.2,28.1,30.39,NNW,336,0.0,0.0,75,0.00,,,0.00,WeatherCatV1.24B11,2013-03-02 12:10:00,
2013-03-02 06:13:00,31.5,23.5,30.36,NNW,336,0.0,0.0,72,0.00,,,0.00,WeatherCatV1.14B232,2013-03-02 12:13:00,
2013-03-02 06:15:00,36.3,28.8,30.40,NNW,336,0.0,2.0,74,0.00,,,0.00,WeatherCatV1.24B11,2013-03-02 12:15:00,
2013-03-02 06:18:00,31.6,24.3,30.36,NNW,336,0.0,0.0,74,0.00,,,0.00,WeatherCatV1.14B232,2013-03-02 12:18:00,
2013-03-02 06:20:00,37.2,29.0,30.40,NNW,336,0.0,1.0,72,0.00,,,0.00,WeatherCatV1.24B11,2013-03-02 12:20:00,
2013-03-02 06:23:00,31.7,24.4,30.36,NNW,336,0.0,0.0,74,0.00,,,0.00,WeatherCatV1.14B232,2013-03-02 12:23:00,
2013-03-02 06:25:00,38.1,29.2,30.40,NNW,336,0.0,0.0,70,0.00,,,0.00,WeatherCatV1.24B11,2013-03-02 12:25:00,
2013-03-02 06:28:00,31.5,24.2,30.37,NNW,336,0.0,0.0,74,0.00,,,0.00,WeatherCatV1.14B232,2013-03-02 12:28:00,
2013-03-02 06:30:00,38.7,29.1,30.41,NNW,336,0.0,0.0,68,0.00,,,0.00,WeatherCatV1.24B11,2013-03-02 12:30:00,
2013-03-02 06:33:00,31.2,23.9,30.37,NNW,336,0.0,0.0,74,0.00,,,0.00,WeatherCatV1.14B232,2013-03-02 12:33:00,
2013-03-02 06:35:00,39.2,29.5,30.41,NNW,336,0.0,0.0,68,0.00,,,0.00,WeatherCatV1.24B11,2013-03-02 12:35:00,
2013-03-02 06:38:00,30.9,23.6,30.37,NNW,336,0.0,0.0,74,0.00,,,0.00,WeatherCatV1.14B232,2013-03-02 12:38:00,
2013-03-02 06:40:00,39.8,29.8,30.41,NNW,336,1.0,2.0,67,0.00,,,0.00,WeatherCatV1.24B11,2013-03-02 12:40:00,
2013-03-02 06:43:00,30.7,23.4,30.37,NNW,336,0.0,0.0,74,0.00,,,0.00,WeatherCatV1.14B232,2013-03-02 12:43:00,
2013-03-02 06:45:00,40.4,29.6,30.42,NNW,336,1.0,1.0,65,0.00,,,0.00,WeatherCatV1.24B11,2013-03-02 12:45:00,
2013-03-02 06:48:00,30.6,23.3,30.38,NNW,336,0.0,0.0,74,0.00,,,0.00,WeatherCatV1.14B232,2013-03-02 12:48:00,
2013-03-02 06:50:00,41.0,30.1,30.42,NNW,336,0.0,0.0,65,0.00,,,0.00,WeatherCatV1.24B11,2013-03-02 12:50:00,
2013-03-02 06:53:00,30.8,24.1,30.38,NNW,336,0.0,0.0,76,0.00,,,0.00,WeatherCatV1.14B232,2013-03-02 12:53:00,
2013-03-02 06:55:00,41.7,30.4,30.42,NNW,336,0.0,1.0,64,0.00,,,0.00,WeatherCatV1.24B11,2013-03-02 12:55:00,
2013-03-02 06:58:00,31.7,25.3,30.38,NNW,336,0.0,0.0,77,0.00,,,0.00,WeatherCatV1.14B232,2013-03-02 12:58:00,
2013-03-02 07:00:00,42.3,30.2,30.42,NNW,332,1.0,4.0,62,0.00,,,0.00,WeatherCatV1.24B11,2013-03-02 13:00:00,
2013-03-02 07:03:00,32.7,26.3,30.39,NNW,336,0.0,0.0,77,0.00,,,0.00,WeatherCatV1.14B232,2013-03-02 13:03:00,
2013-03-02 07:05:00,42.8,30.3,30.42,NW,325,2.0,5.0,61,0.00,,,0.00,WeatherCatV1.24B11,2013-03-02 13:05:00,
2013-03-02 07:08:00,33.4,27.0,30.39,NNW,336,0.0,0.0,77,0.00,,,0.00,WeatherCatV1.14B232,2013-03-02 13:08:00,
2013-03-02 07:10:00,43.3,30.4,30.42,NW,316,2.0,4.0,60,0.00,,,0.00,WeatherCatV1.24B11,2013-03-02 13:10:00,
2013-03-02 07:13:00,33.7,26.6,30.39,NNW,336,0.0,0.0,75,0.00,,,0.00,WeatherCatV1.14B232,2013-03-02 13:13:00,
2013-03-02 07:15:00,43.7,30.7,30.42,NW,316,2.0,4.0,60,0.00,,,0.00,WeatherCatV1.24B11,2013-03-02 13:15:00,
2013-03-02 07:18:00,34.1,27.0,30.39,NNW,336,0.0,0.0,75,0.00,,,0.00,WeatherCatV1.14B232,2013-03-02 13:18:00,
2013-03-02 07:20:00,44.2,30.8,30.42,NW,312,2.0,2.0,59,0.00,,,0.00,WeatherCatV1.24B11,2013-03-02 13:20:00,
2013-03-02 07:23:00,34.6,27.5,30.39,NNW,336,0.0,0.0,75,0.00,,,0.00,WeatherCatV1.14B232,2013-03-02 13:23:00,
2013-03-02 07:25:00,44.8,30.9,30.42,NW,309,2.0,5.0,58,0.00,,,0.00,WeatherCatV1.24B11,2013-03-02 13:25:00,
2013-03-02 07:28:00,35.7,28.6,30.39,NNW,336,0.0,0.0,75,0.00,,,0.00,WeatherCatV1.14B232,2013-03-02 13:28:00,
2013-03-02 07:30:00,45.2,30.9,30.42,NW,304,3.0,4.0,57,0.00,,,0.00,WeatherCatV1.24B11,2013-03-02 13:30:00,
2013-03-02 07:33:00,37.0,29.2,30.40,NNW,336,0.0,1.0,73,0.00,,,0.00,WeatherCatV1.14B232,2013-03-02 13:33:00,
2013-03-02 07:35:00,45.8,31.4,30.42,WNW,298,3.0,10.0,57,0.00,,,0.00,WeatherCatV1.24B11,2013-03-02 13:35:00,
2013-03-02 07:38:00,38.0,29.1,30.40,NNW,336,0.0,1.0,70,0.00,,,0.00,WeatherCatV1.14B232,2013-03-02 13:38:00,
2013-03-02 07:40:00,46.4,31.1,30.43,NW,304,3.0,8.0,55,0.00,,,0.00,WeatherCatV1.24B11,2013-03-02 13:40:00,
2013-03-02 07:43:00,38.6,29.3,30.40,NNW,336,0.0,2.0,69,0.00,,,0.00,WeatherCatV1.14B232,2013-03-02 13:43:00,
2013-03-02 07:45:00,47.1,30.9,30.43,NW,310,3.0,8.0,53,0.00,,,0.00,WeatherCatV1.24B11,2013-03-02 13:45:00,
2013-03-02 07:48:00,39.1,29.4,30.41,NNW,336,0.0,3.0,68,0.00,,,0.00,WeatherCatV1.14B232,2013-03-02 13:48:00,
2013-03-02 07:50:00,47.6,30.4,30.43,NW,325,3.0,9.0,51,0.00,,,0.00,WeatherCatV1.24B11,2013-03-02 13:50:00,
2013-03-02 07:53:00,39.7,29.7,30.41,NNW,336,2.0,3.0,67,0.00,,,0.00,WeatherCatV1.14B232,2013-03-02 13:53:00,
2013-03-02 07:55:00,47.5,29.8,30.43,NNW,328,5.0,14.0,50,0.00,,,0.00,WeatherCatV1.24B11,2013-03-02 13:55:00,
2013-03-02 07:58:00,40.2,29.4,30.42,NNW,336,0.0,2.0,65,0.00,,,0.00,WeatherCatV1.14B232,2013-03-02 13:58:00,
2013-03-02 08:00:00,47.7,30.0,30.43,NNW,328,6.0,7.0,50,0.00,,,0.00,WeatherCatV1.24B11,2013-03-02 14:00:00,
2013-03-02 08:03:00,40.8,30.0,30.42,NNW,336,0.0,1.0,65,0.00,,,0.00,WeatherCatV1.14B232,2013-03-02 14:03:00,
2013-03-02 08:05:00,48.0,30.2,30.43,NNW,329,4.0,10.0,50,0.00,,,0.00,WeatherCatV1.24B11,2013-03-02 14:05:00,
2013-03-02 08:08:00,41.5,30.2,30.42,NNW,336,0.0,4.0,64,0.00,,,0.00,WeatherCatV1.14B232,2013-03-02 14:08:00,
2013-03-02 08:10:00,48.1,29.9,30.43,NW,324,6.0,13.0,49,0.00,,,0.00,WeatherCatV1.24B11,2013-03-02 14:10:00,
2013-03-02 08:13:00,42.2,30.5,30.42,NW,325,4.0,4.0,63,0.00,,,0.00,WeatherCatV1.14B232,2013-03-02 14:13:00,
2013-03-02 08:15:00,48.1,29.9,30.43,NW,324,6.0,10.0,49,0.00,,,0.00,WeatherCatV1.24B11,2013-03-02 14:15:00,
2013-03-02 08:18:00,42.7,30.2,30.42,NW,314,5.0,6.0,61,0.00,,,0.00,WeatherCatV1.14B232,2013-03-02 14:18:00,
2013-03-02 08:20:00,48.1,29.9,30.43,NW,320,6.0,14.0,49,0.00,,,0.00,WeatherCatV1.24B11,2013-03-02 14:20:00,
2013-03-02 08:23:00,43.1,30.6,30.42,NW,314,3.0,5.0,61,0.00,,,0.00,WeatherCatV1.14B232,2013-03-02 14:23:00,
2013-03-02 08:25:00,48.5,29.7,30.43,NNW,329,5.0,13.0,48,0.00,,,0.00,WeatherCatV1.24B11,2013-03-02 14:25:00,
2013-03-02 08:28:00,43.5,30.5,30.43,NW,316,1.0,2.0,60,0.00,,,0.00,WeatherCatV1.14B232,2013-03-02 14:28:00,
2013-03-02 08:30:00,48.8,30.0,30.43,NNW,341,6.0,10.0,48,0.00,,,0.00,WeatherCatV1.24B11,2013-03-02 14:30:00,
2013-03-02 08:33:00,44.0,30.6,30.42,NW,311,6.0,6.0,59,0.00,,,0.00,WeatherCatV1.14B232,2013-03-02 14:33:00,
2013-03-02 08:35:00,49.3,28.9,30.43,NNW,343,5.0,8.0,45,0.00,,,0.00,WeatherCatV1.24B11,2013-03-02 14:35:00,
2013-03-02 08:38:00,44.5,31.1,30.42,WNW,302,1.0,5.0,59,0.00,,,0.00,WeatherCatV1.14B232,2013-03-02 14:38:00,
2013-03-02 08:40:00,49.4,29.5,30.43,NNW,335,5.0,11.0,46,0.00,,,0.00,WeatherCatV1.24B11,2013-03-02 14:40:00,
2013-03-02 08:43:00,45.0,31.1,30.42,WNW,292,5.0,6.0,58,0.00,,,0.00,WeatherCatV1.14B232,2013-03-02 14:43:00,
2013-03-02 08:45:00,49.5,29.0,30.43,NNW,329,6.0,6.0,45,0.00,,,0.00,WeatherCatV1.24B11,2013-03-02 14:45:00,
2013-03-02 08:48:00,45.6,31.3,30.42,WNW,290,3.0,6.0,57,0.00,,,0.00,WeatherCatV1.14B232,2013-03-02 14:48:00,
2013-03-02 08:50:00,49.9,28.9,30.43,NNW,333,5.0,10.0,44,0.00,,,0.00,WeatherCatV1.24B11,2013-03-02 14:50:00,
2013-03-02 08:53:00,46.1,30.8,30.42,NW,307,1.0,7.0,55,0.00,,,0.00,WeatherCatV1.14B232,2013-03-02 14:53:00,
2013-03-02 08:55:00,50.2,29.1,30.43,NNW,340,4.0,9.0,44,0.00,,,0.00,WeatherCatV1.24B11,2013-03-02 14:55:00,
2013-03-02 08:58:00,46.9,30.7,30.43,NNW,333,3.0,9.0,53,0.00,,,0.00,WeatherCatV1.14B232,2013-03-02 14:58:00,
2013-03-02 09:00:00,50.8,29.1,30.43,NW,323,3.0,8.0,43,0.00,,,0.00,WeatherCatV1.24B11,2013-03-02 15:00:00,
2013-03-02 09:03:00,47.4,30.7,30.43,NW,314,6.0,10.0,52,0.00,,,0.00,WeatherCatV1.14B232,2013-03-02 15:03:00,
2013-03-02 09:05:00,51.2,28.9,30.43,NNW,332,4.0,9.0,42,0.00,,,0.00,WeatherCatV1.24B11,2013-03-02 15:05:00,
2013-03-02 09:08:00,47.5,29.8,30.43,WNW,302,6.0,12.0,50,0.00,,,0.00,WeatherCatV1.14B232,2013-03-02 15:08:00,
2013-03-02 09:10:00,51.0,28.1,30.43,NW,321,5.0,11.0,41,0.00,,,0.00,WeatherCatV1.24B11,2013-03-02 15:10:00,
2013-03-02 09:13:00,47.7,30.0,30.43,NW,319,5.0,12.0,50,0.00,,,0.00,WeatherCatV1.14B232,2013-03-02 15:13:00,
2013-03-02 09:15:00,50.9,28.6,30.43,NNW,338,6.0,6.0,42,0.00,,,0.00,WeatherCatV1.24B11,2013-03-02 15:15:00,
2013-03-02 09:18:00,48.0,30.3,30.43,WNW,300,5.0,9.0,50,0.00,,,0.00,WeatherCatV1.14B232,2013-03-02 15:18:00,
2013-03-02 09:20:00,51.4,28.5,30.43,NNW,330,5.0,9.0,41,0.00,,,0.00,WeatherCatV1.24B11,2013-03-02 15:20:00,
2013-03-02 09:23:00,48.1,29.9,30.43,NNW,327,7.0,14.0,49,0.00,,,0.00,WeatherCatV1.14B232,2013-03-02 15:23:00,
2013-03-02 09:25:00,51.3,29.0,30.43,NW,322,5.0,7.0,42,0.00,,,0.00,WeatherCatV1.24B11,2013-03-02 15:25:00,
2013-03-02 09:28:00,48.2,29.9,30.43,NW,307,9.0,13.0,49,0.00,,,0.00,WeatherCatV1.14B232,2013-03-02 15:28:00,
2013-03-02 09:30:00,51.9,28.9,30.43,NW,318,6.0,11.0,41,0.00,,,0.00,WeatherCatV1.24B11,2013-03-02 15:30:00,
2013-03-02 09:33:00,48.1,29.9,30.43,NNW,336,3.0,9.0,49,0.00,,,0.00,WeatherCatV1.14B232,2013-03-02 15:33:00,
2013-03-02 09:35:00,52.1,28.5,30.43,NW,320,6.0,14.0,40,0.00,,,0.00,WeatherCatV1.24B11,2013-03-02 15:35:00,
2013-03-02 09:38:00,48.4,30.1,30.43,NNW,345,10.0,11.0,49,0.00,,,0.00,WeatherCatV1.14B232,2013-03-02 15:38:00,
2013-03-02 09:40:00,52.1,28.5,30.43,NW,318,7.0,8.0,40,0.00,,,0.00,WeatherCatV1.24B11,2013-03-02 15:40:00,
2013-03-02 09:43:00,48.8,30.0,30.43,NE,45,1.0,12.0,48,0.00,,,0.00,WeatherCatV1.14B232,2013-03-02 15:43:00,
2013-03-02 09:45:00,52.7,29.1,30.43,NNW,329,6.0,11.0,40,0.00,,,0.00,WeatherCatV1.24B11,2013-03-02 15:45:00,
2013-03-02 09:48:00,49.2,28.8,30.42,NNW,327,6.0,13.0,45,0.00,,,0.00,WeatherCatV1.14B232,2013-03-02 15:48:00,
2013-03-02 09:50:00,52.9,28.0,30.43,NNW,327,6.0,10.0,38,0.00,,,0.00,WeatherCatV1.24B11,2013-03-02 15:50:00,
2013-03-02 09:53:00,49.3,28.9,30.43,WNW,294,0.0,10.0,45,0.00,,,0.00,WeatherCatV1.14B232,2013-03-02 15:53:00,
2013-03-02 09:55:00,52.7,27.8,30.43,NW,311,8.0,13.0,38,0.00,,,0.00,WeatherCatV1.24B11,2013-03-02 15:55:00,
2013-03-02 09:58:00,49.4,28.4,30.43,NNW,340,9.0,14.0,44,0.00,,,0.00,WeatherCatV1.14B232,2013-03-02 15:58:00,
2013-03-02 10:00:00,53.0,28.1,30.42,NW,307,7.0,11.0,38,0.00,,,0.00,WeatherCatV1.24B11,2013-03-02 16:00:00,
2013-03-02 10:03:00,49.9,28.9,30.43,NNW,342,4.0,6.0,44,0.00,,,0.00,WeatherCatV1.14B232,2013-03-02 16:03:00,
2013-03-02 10:05:00,53.6,29.2,30.42,WNW,303,6.0,7.0,39,0.00,,,0.00,WeatherCatV1.24B11,2013-03-02 16:05:00,
2013-03-02 10:08:00,50.0,29.0,30.43,NNW,334,7.0,8.0,44,0.00,,,0.00,WeatherCatV1.14B232,2013-03-02 16:08:00,
2013-03-02 10:10:00,53.7,28.1,30.42,NW,306,6.0,12.0,37,0.00,,,0.00,WeatherCatV1.24B11,2013-03-02 16:10:00,
2013-03-02 10:13:00,50.6,28.9,30.43,WNW,303,0.0,8.0,43,0.00,,,0.00,WeatherCatV1.14B232,2013-03-02 16:13:00,
2013-03-02 10:15:00,53.5,27.9,30.42,WNW,291,8.0,15.0,37,0.00,,,0.00,WeatherCatV1.24B11,2013-03-02 16:15:00,
2013-03-02 10:18:00,51.0,28.7,30.43,NW,315,5.0,17.0,42,0.00,,,0.00,WeatherCatV1.14B232,2013-03-02 16:18:00,
2013-03-02 10:20:00,53.8,28.8,30.42,WNW,300,8.0,9.0,38,0.00,,,0.00,WeatherCatV1.24B11,2013-03-02 16:20:00,
2013-03-02 10:23:00,51.1,28.2,30.43,NNW,329,2.0,13.0,41,0.00,,,0.00,WeatherCatV1.14B232,2013-03-02 16:23:00,
2013-03-02 10:25:00,54.2,27.8,30.42,NW,306,8.0,15.0,36,0.00,,,0.00,WeatherCatV1.24B11,2013-03-02 16:25:00,
2013-03-02 10:28:00,50.8,28.0,30.43,North,0,8.0,13.0,41,0.00,,,0.00,WeatherCatV1.14B232,2013-03-02 16:28:00,
2013-03-02 10:30:00,54.5,28.1,30.41,NW,317,8.0,8.0,36,0.00,,,0.00,WeatherCatV1.24B11,2013-03-02 16:30:00,
2013-03-02 10:33:00,51.3,29.0,30.43,NW,326,5.0,7.0,42,0.00,,,0.00,WeatherCatV1.14B232,2013-03-02 16:33:00,
2013-03-02 10:35:00,55.1,28.0,30.41,NNW,327,6.0,13.0,35,0.00,,,0.00,WeatherCatV1.24B11,2013-03-02 16:35:00,
2013-03-02 10:38:00,51.3,29.0,30.43,WNW,298,6.0,12.0,42,0.00,,,0.00,WeatherCatV1.14B232,2013-03-02 16:38:00,
2013-03-02 10:40:00,55.7,28.5,30.41,NW,310,6.0,10.0,35,0.00,,,0.00,WeatherCatV1.24B11,2013-03-02 16:40:00,
2013-03-02 10:43:00,51.8,29.4,30.43,NW,312,4.0,9.0,42,0.00,,,0.00,WeatherCatV1.14B232,2013-03-02 16:43:00,
2013-03-02 10:45:00,56.4,29.1,30.41,WNW,301,5.0,10.0,35,0.00,,,0.00,WeatherCatV1.24B11,2013-03-02 16:45:00,
2013-03-02 10:48:00,52.0,29.0,30.43,NW,314,5.0,13.0,41,0.00,,,0.00,WeatherCatV1.14B232,2013-03-02 16:48:00,
2013-03-02 10:50:00,56.3,28.3,30.40,NW,312,6.0,6.0,34,0.00,,,0.00,WeatherCatV1.24B11,2013-03-02 16:50:00,
2013-03-02 10:53:00,52.1,28.5,30.43,NW,308,6.0,10.0,40,0.00,,,0.00,WeatherCatV1.14B232,2013-03-02 16:53:00,
2013-03-02 10:55:00,56.8,28.7,30.40,NW,304,7.0,12.0,34,0.00,,,0.00,WeatherCatV1.24B11,2013-03-02 16:55:00,
2013-03-02 10:58:00,52.4,28.8,30.42,NW,315,9.0,9.0,40,0.00,,,0.00,WeatherCatV1.14B232,2013-03-02 16:58:00,
2013-03-02 11:00:00,56.6,27.8,30.39,WNW,296,7.0,14.0,33,0.00,,,0.00,WeatherCatV1.24B11,2013-03-02 17:00:00,
2013-03-02 11:03:00,53.0,27.4,30.43,NW,307,9.0,16.0,37,0.00,,,0.00,WeatherCatV1.14B232,2013-03-02 17:03:00,
2013-03-02 11:05:00,57.0,28.2,30.39,NW,305,8.0,14.0,33,0.00,,,0.00,WeatherCatV1.24B11,2013-03-02 17:05:00,
2013-03-02 11:08:00,52.8,27.9,30.43,West,266,10.0,10.0,38,0.00,,,0.00,WeatherCatV1.14B232,2013-03-02 17:08:00,
2013-03-02 11:10:00,56.8,27.3,30.38,WNW,295,9.0,16.0,32,0.00,,,0.00,WeatherCatV1.24B11,2013-03-02 17:10:00,
2013-03-02 11:13:00,52.8,27.9,30.42,NW,312,7.0,9.0,38,0.00,,,0.00,WeatherCatV1.14B232,2013-03-02 17:13:00,
2013-03-02 11:15:00,57.1,27.5,30.38,WNW,303,9.0,12.0,32,0.00,,,0.00,WeatherCatV1.24B11,2013-03-02 17:15:00,
2013-03-02 11:18:00,53.5,27.9,30.42,NNW,328,3.0,14.0,37,0.00,,,0.00,WeatherCatV1.14B232,2013-03-02 17:18:00,
2013-03-02 11:20:00,57.5,27.1,30.38,NW,308,9.0,11.0,31,0.00,,,0.00,WeatherCatV1.24B11,2013-03-02 17:20:00,
2013-03-02 11:23:00,53.8,28.1,30.42,WNW,284,9.0,11.0,37,0.00,,,0.00,WeatherCatV1.14B232,2013-03-02 17:23:00,
2013-03-02 11:25:00,57.6,27.2,30.37,NW,314,8.0,12.0,31,0.00,,,0.00,WeatherCatV1.24B11,2013-03-02 17:25:00,
2013-03-02 11:28:00,53.5,27.9,30.42,WNW,303,10.0,12.0,37,0.00,,,0.00,WeatherCatV1.14B232,2013-03-02 17:28:00,
2013-03-02 11:30:00,58.3,27.8,30.37,NW,310,8.0,15.0,31,0.00,,,0.00,WeatherCatV1.24B11,2013-03-02 17:30:00,
2013-03-02 11:33:00,53.7,28.1,30.42,West,281,6.0,14.0,37,0.00,,,0.00,WeatherCatV1.14B232,2013-03-02 17:33:00,
2013-03-02 11:35:00,58.2,26.9,30.37,NW,304,9.0,13.0,30,0.00,,,0.00,WeatherCatV1.24B11,2013-03-02 17:35:00,
2013-03-02 11:38:00,54.0,28.3,30.41,NW,315,7.0,13.0,37,0.00,,,0.00,WeatherCatV1.14B232,2013-03-02 17:38:00,
2013-03-02 11:40:00,58.7,27.4,30.36,NW,317,11.0,14.0,30,0.00,,,0.00,WeatherCatV1.24B11,2013-03-02 17:40:00,
2013-03-02 11:43:00,54.3,27.9,30.41,West,272,10.0,12.0,36,0.00,,,0.00,WeatherCatV1.14B232,2013-03-02 17:43:00,
2013-03-02 11:45:00,59.0,26.8,30.36,NW,318,10.0,17.0,29,0.00,,,0.00,WeatherCatV1.24B11,2013-03-02 17:45:00,
2013-03-02 11:48:00,54.9,28.5,30.41,North,5,5.0,11.0,36,0.00,,,0.00,WeatherCatV1.14B232,2013-03-02 17:48:00,
2013-03-02 11:50:00,59.3,27.9,30.36,NW,318,9.0,9.0,30,0.00,,,0.00,WeatherCatV1.24B11,2013-03-02 17:50:00,
2013-03-02 11:53:00,55.3,28.8,30.41,WNW,303,8.0,9.0,36,0.00,,,0.00,WeatherCatV1.14B232,2013-03-02 17:53:00,
2013-03-02 11:55:00,59.3,27.0,30.36,NW,326,9.0,16.0,29,0.00,,,0.00,WeatherCatV1.24B11,2013-03-02 17:55:00,
2013-03-02 11:58:00,56.2,28.9,30.41,West,280,10.0,10.0,35,0.00,,,0.00,WeatherCatV1.14B232,2013-03-02 17:58:00,
2013-03-02 12:00:00,58.9,26.7,30.35,NNW,332,11.0,11.0,29,0.00,,,0.00,WeatherCatV1.24B11,2013-03-02 18:00:00,
2013-03-02 12:03:00,56.2,28.2,30.40,WNW,296,6.0,17.0,34,0.00,,,0.00,WeatherCatV1.14B232,2013-03-02 18:03:00,
2013-03-02 12:05:00,59.0,26.8,30.35,NNW,329,10.0,15.0,29,0.00,,,0.00,WeatherCatV1.24B11,2013-03-02 18:05:00,
2013-03-02 12:08:00,56.6,28.6,30.40,WNW,291,5.0,8.0,34,0.00,,,0.00,WeatherCatV1.14B232,2013-03-02 18:08:00,
2013-03-02 12:10:00,59.7,27.4,30.35,NW,323,8.0,17.0,29,0.00,,,0.00,WeatherCatV1.24B11,2013-03-02 18:10:00,
2013-03-02 12:13:00,56.7,27.9,30.39,WNW,287,16.0,16.0,33,0.00,,,0.00,WeatherCatV1.14B232,2013-03-02 18:13:00,
2013-03-02 12:15:00,60.1,27.7,30.34,NNW,329,7.0,9.0,29,0.00,,,0.00,WeatherCatV1.24B11,2013-03-02 18:15:00,
2013-03-02 12:18:00,56.7,28.6,30.40,NNW,342,12.0,14.0,34,0.00,,,0.00,WeatherCatV1.14B232,2013-03-02 18:18:00,
2013-03-02 12:20:00,60.0,27.7,30.34,NW,321,8.0,17.0,29,0.00,,,0.00,WeatherCatV1.24B11,2013-03-02 18:20:00,
2013-03-02 12:23:00,57.0,27.4,30.39,NW,308,10.0,14.0,32,0.00,,,0.00,WeatherCatV1.14B232,2013-03-02 18:23:00,
2013-03-02 12:25:00,59.7,28.2,30.34,NW,312,11.0,17.0,30,0.00,,,0.00,WeatherCatV1.24B11,2013-03-02 18:25:00,
2013-03-02 12:28:00,57.0,27.4,30.39,NW,319,2.0,14.0,32,0.00,,,0.00,WeatherCatV1.14B232,2013-03-02 18:28:00,
2013-03-02 12:30:00,60.0,27.7,30.33,NW,314,11.0,15.0,29,0.00,,,0.00,WeatherCatV1.24B11,2013-03-02 18:30:00,
2013-03-02 12:33:00,57.5,27.9,30.38,NNW,336,11.0,17.0,32,0.00,,,0.00,WeatherCatV1.14B232,2013-03-02 18:33:00,
2013-03-02 12:35:00,59.7,27.4,30.33,NW,314,10.0,17.0,29,0.00,,,0.00,WeatherCatV1.24B11,2013-03-02 18:35:00,
2013-03-02 12:38:00,57.6,27.2,30.38,NW,326,12.0,15.0,31,0.00,,,0.00,WeatherCatV1.14B232,2013-03-02 18:38:00,
2013-03-02 12:40:00,60.5,28.1,30.33,NW,315,10.0,20.0,29,0.00,,,0.00,WeatherCatV1.24B11,2013-03-02 18:40:00,
2013-03-02 12:43:00,58.1,28.4,30.37,NW,319,11.0,13.0,32,0.00,,,0.00,WeatherCatV1.14B232,2013-03-02 18:43:00,
2013-03-02 12:45:00,60.5,28.1,30.33,NW,322,10.0,14.0,29,0.00,,,0.00,WeatherCatV1.24B11,2013-03-02 18:45:00,
2013-03-02 12:48:00,58.1,26.8,30.37,WSW,256,11.0,17.0,30,0.00,,,0.00,WeatherCatV1.14B232,2013-03-02 18:48:00,
2013-03-02 12:50:00,60.7,27.4,30.32,NNW,336,9.0,14.0,28,0.00,,,0.00,WeatherCatV1.24B11,2013-03-02 18:50:00,
2013-03-02 12:53:00,58.8,27.4,30.37,NNE,17,12.0,18.0,30,0.00,,,0.00,WeatherCatV1.14B232,2013-03-02 18:53:00,
2013-03-02 12:55:00,60.4,28.0,30.32,NW,324,8.0,11.0,29,0.00,,,0.00,WeatherCatV1.24B11,2013-03-02 18:55:00,
2013-03-02 12:58:00,58.8,26.6,30.37,NNW,345,8.0,15.0,29,0.00,,,0.00,WeatherCatV1.14B232,2013-03-02 18:58:00,
2013-03-02 13:00:00,61.1,27.8,30.32,NW,322,8.0,10.0,28,0.00,,,0.00,WeatherCatV1.24B11,2013-03-02 19:00:00,
2013-03-02 13:03:00,59.0,26.8,30.36,NW,325,0.0,11.0,29,0.00,,,0.00,WeatherCatV1.14B232,2013-03-02 19:03:00,
2013-03-02 13:05:00,61.7,28.3,30.32,NW,314,9.0,12.0,28,0.00,,,0.00,WeatherCatV1.24B11,2013-03-02 19:05:00,
2013-03-02 13:08:00,59.5,27.2,30.36,NNW,346,10.0,13.0,29,0.00,,,0.00,WeatherCatV1.14B232,2013-03-02 19:08:00,
2013-03-02 13:10:00,61.3,27.9,30.32,NNW,334,8.0,13.0,28,0.00,,,0.00,WeatherCatV1.24B11,2013-03-02 19:10:00,
2013-03-02 13:13:00,59.0,26.8,30.35,North,355,10.0,20.0,29,0.00,,,0.00,WeatherCatV1.14B232,2013-03-02 19:13:00,
2013-03-02 13:15:00,61.8,28.4,30.31,NNW,332,7.0,11.0,28,0.00,,,0.00,WeatherCatV1.24B11,2013-03-02 19:15:00,
2013-03-02 13:18:00,59.0,26.8,30.35,North,355,17.0,19.0,29,0.00,,,0.00,WeatherCatV1.14B232,2013-03-02 19:18:00,
2013-03-02 13:20:00,61.6,29.0,30.31,NNW,335,6.0,7.0,29,0.00,,,0.00,WeatherCatV1.24B11,2013-03-02 19:20:00,
2013-03-02 13:23:00,59.4,28.0,30.35,North,9,4.0,10.0,30,0.00,,,0.00,WeatherCatV1.14B232,2013-03-02 19:23:00,
2013-03-02 13:25:00,61.9,28.4,30.31,NNW,327,6.0,12.0,28,0.00,,,0.00,WeatherCatV1.24B11,2013-03-02 19:25:00,
2013-03-02 13:28:00,59.8,27.5,30.34,NNW,331,4.0,7.0,29,0.00,,,0.00,WeatherCatV1.14B232,2013-03-02 19:28:00,
2013-03-02 13:30:00,61.7,29.1,30.31,NW,320,8.0,11.0,29,0.00,,,0.00,WeatherCatV1.24B11,2013-03-02 19:30:00,
2013-03-02 13:33:00,60.1,26.9,30.34,NW,311,11.0,20.0,28,0.00,,,0.00,WeatherCatV1.14B232,2013-03-02 19:33:00,
2013-03-02 13:35:00,62.3,29.6,30.30,NNW,327,8.0,9.0,29,0.00,,,0.00,WeatherCatV1.24B11,2013-03-02 19:35:00,
2013-03-02 13:38:00,59.8,27.5,30.33,NNW,340,14.0,17.0,29,0.00,,,0.00,WeatherCatV1.14B232,2013-03-02 19:38:00,
2013-03-02 13:40:00,62.8,29.2,30.30,NNW,346,6.0,6.0,28,0.00,,,0.00,WeatherCatV1.24B11,2013-03-02 19:40:00,
2013-03-02 13:43:00,59.9,27.6,30.33,NW,313,10.0,21.0,29,0.00,,,0.00,WeatherCatV1.14B232,2013-03-02 19:43:00,
2013-03-02 13:45:00,63.0,29.4,30.30,NNW,332,5.0,7.0,28,0.00,,,0.00,WeatherCatV1.24B11,2013-03-02 19:45:00,
2013-03-02 13:48:00,59.9,27.6,30.33,WNW,302,12.0,17.0,29,0.00,,,0.00,WeatherCatV1.14B232,2013-03-02 19:48:00,
2013-03-02 13:50:00,62.7,30.0,30.30,NW,319,6.0,9.0,29,0.00,,,0.00,WeatherCatV1.24B11,2013-03-02 19:50:00,
2013-03-02 13:53:00,60.1,27.7,30.33,NW,317,9.0,16.0,29,0.00,,,0.00,WeatherCatV1.14B232,2013-03-02 19:53:00,
2013-03-02 13:55:00,63.0,29.4,30.30,NNW,331,7.0,12.0,28,0.00,,,0.00,WeatherCatV1.24B11,2013-03-02 19:55:00,
2013-03-02 13:58:00,60.5,27.2,30.33,NW,324,9.0,18.0,28,0.00,,,0.00,WeatherCatV1.14B232,2013-03-02 19:58:00,
2013-03-02 14:00:00,63.3,28.8,30.29,NW,319,7.0,18.0,27,0.00,,,0.00,WeatherCatV1.24B11,2013-03-02 20:00:00,
2013-03-02 14:03:00,60.6,27.3,30.32,NNW,348,5.0,14.0,28,0.00,,,0.00,WeatherCatV1.14B232,2013-03-02 20:03:00,
2013-03-02 14:05:00,63.1,29.5,30.29,NW,324,8.0,9.0,28,0.00,,,0.00,WeatherCatV1.24B11,2013-03-02 20:05:00,
2013-03-02 14:08:00,60.4,28.0,30.32,NW,318,1.0,9.0,29,0.00,,,0.00,WeatherCatV1.14B232,2013-03-02 20:08:00,
2013-03-02 14:10:00,63.0,28.5,30.29,NW,318,8.0,15.0,27,0.00,,,0.00,WeatherCatV1.24B11,2013-03-02 20:10:00,
2013-03-02 14:13:00,60.9,28.4,30.32,North,9,10.0,15.0,29,0.00,,,0.00,WeatherCatV1.14B232,2013-03-02 20:13:00,
2013-03-02 14:15:00,62.7,29.1,30.28,NW,323,7.0,12.0,28,0.00,,,0.00,WeatherCatV1.24B11,2013-03-02 20:15:00,
2013-03-02 14:18:00,61.7,28.3,30.32,WNW,300,9.0,12.0,28,0.00,,,0.00,WeatherCatV1.14B232,2013-03-02 20:18:00,
2013-03-02 14:20:00,62.9,29.3,30.28,NW,319,8.0,8.0,28,0.00,,,0.00,WeatherCatV1.24B11,2013-03-02 20:20:00,
2013-03-02 14:23:00,61.4,28.0,30.32,North,10,13.0,13.0,28,0.00,,,0.00,WeatherCatV1.14B232,2013-03-02 20:23:00,
2013-03-02 14:25:00,63.7,30.0,30.28,NNW,337,7.0,9.0,28,0.00,,,0.00,WeatherCatV1.24B11,2013-03-02 20:25:00,
2013-03-02 14:28:00,61.8,28.4,30.31,NNE,22,5.0,11.0,28,0.00,,,0.00,WeatherCatV1.14B232,2013-03-02 20:28:00,
2013-03-02 14:30:00,63.8,29.2,30.28,NNW,347,6.0,9.0,27,0.00,,,0.00,WeatherCatV1.24B11,2013-03-02 20:30:00,
2013-03-02 14:33:00,61.6,29.0,30.31,NW,317,6.0,9.0,29,0.00,,,0.00,WeatherCatV1.14B232,2013-03-02 20:33:00,
2013-03-02 14:35:00,63.6,29.0,30.28,NNW,343,6.0,10.0,27,0.00,,,0.00,WeatherCatV1.24B11,2013-03-02 20:35:00,
2013-03-02 14:38:00,62.0,28.5,30.31,NW,317,9.0,16.0,28,0.00,,,0.00,WeatherCatV1.14B232,2013-03-02 20:38:00,
2013-03-02 14:40:00,63.3,29.6,30.28,NW,312,7.0,14.0,28,0.00,,,0.00,WeatherCatV1.24B11,2013-03-02 20:40:00,
2013-03-02 14:43:00,61.7,29.1,30.31,NW,323,9.0,19.0,29,0.00,,,0.00,WeatherCatV1.14B232,2013-03-02 20:43:00,
2013-03-02 14:45:00,63.3,29.6,30.28,NW,310,8.0,11.0,28,0.00,,,0.00,WeatherCatV1.24B11,2013-03-02 20:45:00,
2013-03-02 14:48:00,62.1,28.6,30.31,NNW,347,3.0,10.0,28,0.00,,,0.00,WeatherCatV1.14B232,2013-03-02 20:48:00,
2013-03-02 14:50:00,63.6,29.9,30.27,NW,317,8.0,9.0,28,0.00,,,0.00,WeatherCatV1.24B11,2013-03-02 20:50:00,
2013-03-02 14:53:00,62.8,29.2,30.30,NNW,344,6.0,13.0,28,0.00,,,0.00,WeatherCatV1.14B232,2013-03-02 20:53:00,
2013-03-02 14:55:00,63.6,29.9,30.27,NW,315,8.0,13.0,28,0.00,,,0.00,WeatherCatV1.24B11,2013-03-02 20:55:00,
2013-03-02 14:59:00,63.0,29.4,30.30,NNW,331,7.0,11.0,28,0.00,,,0.00,WeatherCatV1.14B232,2013-03-02 20:59:00,
2013-03-02 15:00:00,63.9,30.2,30.27,NW,321,7.0,7.0,28,0.00,,,0.00,WeatherCatV1.24B11,2013-03-02 21:00:00,
2013-03-02 15:04:00,62.6,29.0,30.30,NW,319,7.0,11.0,28,0.00,,,0.00,WeatherCatV1.14B232,2013-03-02 21:04:00,
2013-03-02 15:05:00,64.0,30.2,30.27,NW,320,6.0,12.0,28,0.00,,,0.00,WeatherCatV1.24B11,2013-03-02 21:05:00,
2013-03-02 15:09:00,63.0,29.4,30.30,NW,305,10.0,12.0,28,0.00,,,0.00,WeatherCatV1.14B232,2013-03-02 21:09:00,
2013-03-02 15:10:00,64.0,30.2,30.27,WNW,301,7.0,7.0,28,0.00,,,0.00,WeatherCatV1.24B11,2013-03-02 21:10:00,
2013-03-02 15:14:00,63.5,29.8,30.29,NW,307,15.0,15.0,28,0.00,,,0.00,WeatherCatV1.14B232,2013-03-02 21:14:00,
2013-03-02 15:15:00,63.8,30.1,30.27,NW,313,6.0,9.0,28,0.00,,,0.00,WeatherCatV1.24B11,2013-03-02 21:15:00,
2013-03-02 15:19:00,63.1,29.5,30.29,NW,313,4.0,17.0,28,0.00,,,0.00,WeatherCatV1.14B232,2013-03-02 21:19:00,
2013-03-02 15:20:00,63.9,30.2,30.26,NW,314,5.0,11.0,28,0.00,,,0.00,WeatherCatV1.24B11,2013-03-02 21:20:00,
2013-03-02 15:24:00,63.1,29.5,30.29,NNW,348,11.0,11.0,28,0.00,,,0.00,WeatherCatV1.14B232,2013-03-02 21:24:00,
2013-03-02 15:25:00,64.0,30.2,30.26,NW,317,7.0,9.0,28,0.00,,,0.00,WeatherCatV1.24B11,2013-03-02 21:25:00,
2013-03-02 15:29:00,62.7,29.1,30.29,North,349,8.0,14.0,28,0.00,,,0.00,WeatherCatV1.14B232,2013-03-02 21:29:00,
2013-03-02 15:30:00,64.3,30.5,30.26,NW,313,6.0,8.0,28,0.00,,,0.00,WeatherCatV1.24B11,2013-03-02 21:30:00,
2013-03-02 15:34:00,62.8,29.2,30.29,NW,306,5.0,10.0,28,0.00,,,0.00,WeatherCatV1.14B232,2013-03-02 21:34:00,
2013-03-02 15:35:00,64.1,30.3,30.26,NW,322,5.0,6.0,28,0.00,,,0.00,WeatherCatV1.24B11,2013-03-02 21:35:00,
2013-03-02 15:39:00,63.7,29.1,30.28,NNW,341,5.0,8.0,27,0.00,,,0.00,WeatherCatV1.14B232,2013-03-02 21:39:00,
2013-03-02 15:40:00,63.9,30.2,30.26,NW,322,6.0,9.0,28,0.00,,,0.00,WeatherCatV1.24B11,2013-03-02 21:40:00,
2013-03-02 15:44:00,63.8,29.2,30.28,NNW,342,3.0,13.0,27,0.00,,,0.00,WeatherCatV1.14B232,2013-03-02 21:44:00,
2013-03-02 15:45:00,64.2,30.4,30.26,NW,324,5.0,9.0,28,0.00,,,0.00,WeatherCatV1.24B11,2013-03-02 21:45:00,
2013-03-02 15:49:00,63.6,29.0,30.28,NW,314,5.0,10.0,27,0.00,,,0.00,WeatherCatV1.14B232,2013-03-02 21:49:00,
2013-03-02 15:50:00,64.1,30.3,30.26,NNW,332,5.0,10.0,28,0.00,,,0.00,WeatherCatV1.24B11,2013-03-02 21:50:00,
2013-03-02 15:54:00,63.3,29.6,30.28,West,269,9.0,14.0,28,0.00,,,0.00,WeatherCatV1.14B232,2013-03-02 21:54:00,
2013-03-02 15:55:00,63.9,30.2,30.26,NW,318,6.0,12.0,28,0.00,,,0.00,WeatherCatV1.24B11,2013-03-02 21:55:00,
2013-03-02 15:59:00,63.3,29.6,30.28,WNW,284,11.0,11.0,28,0.00,,,0.00,WeatherCatV1.14B232,2013-03-02 21:59:00,
2013-03-02 16:00:00,63.7,30.0,30.27,NW,323,6.0,8.0,28,0.00,,,0.00,WeatherCatV1.24B11,2013-03-02 22:00:00,
2013-03-02 16:04:00,63.6,29.9,30.27,NW,305,9.0,11.0,28,0.00,,,0.00,WeatherCatV1.14B232,2013-03-02 22:04:00,
2013-03-02 16:05:00,64.0,31.1,30.26,NNW,342,4.0,10.0,29,0.00,,,0.00,WeatherCatV1.24B11,2013-03-02 22:05:00,
2013-03-02 16:09:00,63.6,29.9,30.27,NNW,328,13.0,13.0,28,0.00,,,0.00,WeatherCatV1.14B232,2013-03-02 22:09:00,
2013-03-02 16:10:00,63.9,30.2,30.26,NNW,346,4.0,14.0,28,0.00,,,0.00,WeatherCatV1.24B11,2013-03-02 22:10:00,
2013-03-02 16:14:00,63.9,30.2,30.27,NW,309,2.0,8.0,28,0.00,,,0.00,WeatherCatV1.14B232,2013-03-02 22:14:00,
2013-03-02 16:15:00,63.9,31.0,30.26,NNW,332,5.0,6.0,29,0.00,,,0.00,WeatherCatV1.24B11,2013-03-02 22:15:00,
2013-03-02 16:19:00,64.0,30.2,30.27,NNW,333,7.0,12.0,28,0.00,,,0.00,WeatherCatV1.14B232,2013-03-02 22:19:00,
2013-03-02 16:20:00,64.0,31.1,30.27,NW,319,4.0,4.0,29,0.00,,,0.00,WeatherCatV1.24B11,2013-03-02 22:20:00,
2013-03-02 16:24:00,64.0,29.4,30.27,WNW,294,0.0,13.0,27,0.00,,,0.00,WeatherCatV1.14B232,2013-03-02 22:24:00,
2013-03-02 16:25:00,64.0,31.1,30.27,NNW,332,4.0,8.0,29,0.00,,,0.00,WeatherCatV1.24B11,2013-03-02 22:25:00,
2013-03-02 16:29:00,63.8,30.1,30.27,NNW,329,5.0,9.0,28,0.00,,,0.00,WeatherCatV1.14B232,2013-03-02 22:29:00,
2013-03-02 16:30:00,63.8,30.9,30.27,NNW,339,4.0,9.0,29,0.00,,,0.00,WeatherCatV1.24B11,2013-03-02 22:30:00,
2013-03-02 16:34:00,63.9,30.2,30.26,NW,304,4.0,10.0,28,0.00,,,0.00,WeatherCatV1.14B232,2013-03-02 22:34:00,
2013-03-02 16:35:00,63.5,30.7,30.27,NW,323,4.0,4.0,29,0.00,,,0.00,WeatherCatV1.24B11,2013-03-02 22:35:00,
2013-03-02 16:39:00,64.0,30.2,30.26,NNE,17,1.0,11.0,28,0.00,,,0.00,WeatherCatV1.14B232,2013-03-02 22:39:00,
2013-03-02 16:40:00,63.4,30.6,30.27,NW,326,3.0,3.0,29,0.00,,,0.00,WeatherCatV1.24B11,2013-03-02 22:40:00,
2013-03-02 16:44:00,64.3,30.5,30.26,WNW,286,3.0,8.0,28,0.00,,,0.00,WeatherCatV1.14B232,2013-03-02 22:44:00,
2013-03-02 16:45:00,63.2,30.4,30.27,NNW,328,2.0,5.0,29,0.00,,,0.00,WeatherCatV1.24B11,2013-03-02 22:45:00,
2013-03-02 16:49:00,64.2,30.4,30.26,NNW,340,6.0,12.0,28,0.00,,,0.00,WeatherCatV1.14B232,2013-03-02 22:49:00,
2013-03-02 16:50:00,63.0,31.1,30.27,NW,317,1.0,3.0,30,0.00,,,0.00,WeatherCatV1.24B11,2013-03-02 22:50:00,
2013-03-02 16:54:00,64.0,30.2,30.26,NW,324,5.0,16.0,28,0.00,,,0.00,WeatherCatV1.14B232,2013-03-02 22:54:00,
2013-03-02 16:55:00,62.8,30.9,30.27,NW,320,1.0,7.0,30,0.00,,,0.00,WeatherCatV1.24B11,2013-03-02 22:55:00,
2013-03-02 16:59:00,64.1,30.3,30.26,NW,304,8.0,11.0,28,0.00,,,0.00,WeatherCatV1.14B232,2013-03-02 22:59:00,
2013-03-02 17:00:00,62.4,30.6,30.27,NNW,330,2.0,4.0,30,0.00,,,0.00,WeatherCatV1.24B11,2013-03-02 23:00:00,
2013-03-02 17:04:00,64.1,30.3,30.26,North,0,7.0,10.0,28,0.00,,,0.00,WeatherCatV1.14B232,2013-03-02 23:04:00,
2013-03-02 17:05:00,61.9,30.1,30.27,NNW,342,1.0,4.0,30,0.00,,,0.00,WeatherCatV1.24B11,2013-03-02 23:05:00,
2013-03-02 17:09:00,64.0,30.2,30.26,WNW,287,9.0,11.0,28,0.00,,,0.00,WeatherCatV1.14B232,2013-03-02 23:09:00,
2013-03-02 17:10:00,61.4,30.5,30.27,NNW,335,1.0,1.0,31,0.00,,,0.00,WeatherCatV1.24B11,2013-03-02 23:10:00,
2013-03-02 17:14:00,63.8,30.1,30.26,NNW,333,5.0,8.0,28,0.00,,,0.00,WeatherCatV1.14B232,2013-03-02 23:14:00,
2013-03-02 17:15:00,60.9,30.1,30.27,NNW,334,0.0,0.0,31,0.00,,,0.00,WeatherCatV1.24B11,2013-03-02 23:15:00,
2013-03-02 17:19:00,63.9,31.0,30.26,North,355,1.0,9.0,29,0.00,,,0.00,WeatherCatV1.14B232,2013-03-02 23:19:00,
2013-03-02 17:20:00,60.3,30.3,30.27,NNW,333,0.0,0.0,32,0.00,,,0.00,WeatherCatV1.24B11,2013-03-02 23:20:00,
2013-03-02 17:24:00,63.9,30.2,30.26,NW,317,5.0,14.0,28,0.00,,,0.00,WeatherCatV1.14B232,2013-03-02 23:24:00,
2013-03-02 17:25:00,59.7,29.8,30.27,NNW,333,0.0,0.0,32,0.00,,,0.00,WeatherCatV1.24B11,2013-03-02 23:25:00,
2013-03-02 17:29:00,63.9,31.0,30.26,NW,315,6.0,6.0,29,0.00,,,0.00,WeatherCatV1.14B232,2013-03-02 23:29:00,
2013-03-02 17:30:00,59.0,30.0,30.27,NNW,333,0.0,0.0,33,0.00,,,0.00,WeatherCatV1.24B11,2013-03-02 23:30:00,
2013-03-02 17:34:00,64.0,31.1,30.27,North,350,3.0,4.0,29,0.00,,,0.00,WeatherCatV1.14B232,2013-03-02 23:34:00,
2013-03-02 17:35:00,58.2,29.2,30.27,NNW,333,0.0,0.0,33,0.00,,,0.00,WeatherCatV1.24B11,2013-03-02 23:35:00,
2013-03-02 17:39:00,64.0,31.1,30.27,NNW,348,0.0,8.0,29,0.00,,,0.00,WeatherCatV1.14B232,2013-03-02 23:39:00,
2013-03-02 17:40:00,57.4,29.3,30.27,NNW,333,0.0,0.0,34,0.00,,,0.00,WeatherCatV1.24B11,2013-03-02 23:40:00,
2013-03-02 17:44:00,63.8,30.9,30.27,North,11,0.0,10.0,29,0.00,,,0.00,WeatherCatV1.14B232,2013-03-02 23:44:00,
2013-03-02 17:45:00,56.6,29.3,30.27,NNW,333,0.0,0.0,35,0.00,,,0.00,WeatherCatV1.24B11,2013-03-02 23:45:00,
2013-03-02 17:49:00,63.6,30.8,30.27,NW,322,0.0,5.0,29,0.00,,,0.00,WeatherCatV1.14B232,2013-03-02 23:49:00,
2013-03-02 17:50:00,55.8,29.2,30.27,NNW,333,0.0,0.0,36,0.00,,,0.00,WeatherCatV1.24B11,2013-03-02 23:50:00,
2013-03-02 17:54:00,63.4,30.6,30.27,NW,325,0.0,3.0,29,0.00,,,0.00,WeatherCatV1.14B232,2013-03-02 23:54:00,
2013-03-02 17:55:00,55.2,28.7,30.27,NNW,333,0.0,0.0,36,0.00,,,0.00,WeatherCatV1.24B11,2013-03-02 23:55:00,
2013-03-02 17:59:00,63.2,31.3,30.27,NNW,332,0.0,7.0,30,0.00,,,0.00,WeatherCatV1.14B232,2013-03-02 23:59:00,
2013-03-02 18:00:00,54.4,28.7,30.27,NNW,333,0.0,0.0,37,0.00,,,0.00,WeatherCatV1.24B11,2013-03-03 00:00:00,
2013-03-02 18:04:00,63.0,31.1,30.27,NW,312,0.0,3.0,30,0.00,,,0.00,WeatherCatV1.14B232,2013-03-03 00:04:00,
2013-03-02 18:05:00,53.6,28.6,30.27,NNW,333,0.0,0.0,38,0.00,,,0.00,WeatherCatV1.24B11,2013-03-03 00:05:00,
2013-03-02 18:09:00,62.8,30.9,30.27,NW,313,0.0,7.0,30,0.00,,,0.00,WeatherCatV1.14B232,2013-03-03 00:09:00,
2013-03-02 18:10:00,52.7,28.5,30.27,NNW,333,0.0,0.0,39,0.00,,,0.00,WeatherCatV1.24B11,2013-03-03 00:10:00,
2013-03-02 18:14:00,62.4,30.6,30.27,North,349,1.0,8.0,30,0.00,,,0.00,WeatherCatV1.14B232,2013-03-03 00:14:00,
2013-03-02 18:15:00,52.0,27.2,30.27,NNW,333,0.0,0.0,38,0.00,,,0.00,WeatherCatV1.24B11,2013-03-03 00:15:00,
2013-03-02 18:19:00,62.0,30.2,30.27,North,350,2.0,4.0,30,0.00,,,0.00,WeatherCatV1.14B232,2013-03-03 00:19:00,
2013-03-02 18:20:00,51.0,26.9,30.27,NNW,333,0.0,0.0,39,0.00,,,0.00,WeatherCatV1.24B11,2013-03-03 00:20:00,
2013-03-02 18:24:00,61.5,30.6,30.27,NNW,333,2.0,2.0,31,0.00,,,0.00,WeatherCatV1.14B232,2013-03-03 00:24:00,
2013-03-02 18:25:00,50.0,26.6,30.27,NNW,333,0.0,0.0,40,0.00,,,0.00,WeatherCatV1.24B11,2013-03-03 00:25:00,
2013-03-02 18:29:00,61.0,30.1,30.27,NNW,333,0.0,0.0,31,0.00,,,0.00,WeatherCatV1.14B232,2013-03-03 00:29:00,
2013-03-02 18:30:00,49.2,26.5,30.27,NNW,333,0.0,0.0,41,0.00,,,0.00,WeatherCatV1.24B11,2013-03-03 00:30:00,
2013-03-02 18:34:00,60.5,30.5,30.27,NNW,333,0.0,0.0,32,0.00,,,0.00,WeatherCatV1.14B232,2013-03-03 00:34:00,
2013-03-02 18:35:00,48.6,26.6,30.27,NNW,333,0.0,0.0,42,0.00,,,0.00,WeatherCatV1.24B11,2013-03-03 00:35:00,
2013-03-02 18:39:00,59.8,29.9,30.27,NNW,333,0.0,0.0,32,0.00,,,0.00,WeatherCatV1.14B232,2013-03-03 00:39:00,
2013-03-02 18:40:00,48.0,25.4,30.27,NNW,333,0.0,0.0,41,0.00,,,0.00,WeatherCatV1.24B11,2013-03-03 00:40:00,
2013-03-02 18:44:00,59.0,29.9,30.27,NNW,333,0.0,0.0,33,0.00,,,0.00,WeatherCatV1.14B232,2013-03-03 00:44:00,
2013-03-02 18:45:00,47.4,26.0,30.27,NNW,333,0.0,0.0,43,0.00,,,0.00,WeatherCatV1.24B11,2013-03-03 00:45:00,
2013-03-02 18:49:00,58.4,29.4,30.27,NNW,333,0.0,0.0,33,0.00,,,0.00,WeatherCatV1.14B232,2013-03-03 00:49:00,
2013-03-02 18:50:00,46.8,26.6,30.27,NNW,333,0.0,0.0,45,0.00,,,0.00,WeatherCatV1.24B11,2013-03-03 00:50:00,
2013-03-02 18:54:00,57.6,29.4,30.27,NNW,333,0.0,0.0,34,0.00,,,0.00,WeatherCatV1.14B232,2013-03-03 00:54:00,
2013-03-02 18:55:00,46.2,26.0,30.27,NNW,333,0.0,0.0,45,0.00,,,0.00,WeatherCatV1.24B11,2013-03-03 00:55:00,
2013-03-02 18:59:00,56.8,28.7,30.27,NNW,333,0.0,0.0,34,0.00,,,0.00,WeatherCatV1.14B232,2013-03-03 00:59:00,
2013-03-02 19:00:00,45.8,26.2,30.27,NNW,333,0.0,0.0,46,0.00,,,0.00,WeatherCatV1.24B11,2013-03-03 01:00:00,
2013-03-02 19:04:00,56.0,28.7,30.27,NNW,333,0.0,0.0,35,0.00,,,0.00,WeatherCatV1.14B232,2013-03-03 01:04:00,
2013-03-02 19:05:00,45.4,26.4,30.27,NNW,333,0.0,0.0,47,0.00,,,0.00,WeatherCatV1.24B11,2013-03-03 01:05:00,
2013-03-02 19:09:00,55.2,28.7,30.27,NNW,333,0.0,0.0,36,0.00,,,0.00,WeatherCatV1.14B232,2013-03-03 01:09:00,
2013-03-02 19:10:00,45.0,26.5,30.27,NNW,333,0.0,0.0,48,0.00,,,0.00,WeatherCatV1.24B11,2013-03-03 01:10:00,
2013-03-02 19:14:00,54.4,28.7,30.27,NNW,333,0.0,0.0,37,0.00,,,0.00,WeatherCatV1.14B232,2013-03-03 01:14:00,
2013-03-02 19:15:00,44.6,26.1,30.28,NNW,333,0.0,0.0,48,0.00,,,0.00,WeatherCatV1.24B11,2013-03-03 01:15:00,
2013-03-02 19:19:00,53.6,28.6,30.27,NNW,333,0.0,0.0,38,0.00,,,0.00,WeatherCatV1.14B232,2013-03-03 01:19:00,
2013-03-02 19:20:00,44.2,26.3,30.28,NNW,333,0.0,0.0,49,0.00,,,0.00,WeatherCatV1.24B11,2013-03-03 01:20:00,
2013-03-02 19:24:00,52.7,28.4,30.27,NNW,333,0.0,0.0,39,0.00,,,0.00,WeatherCatV1.14B232,2013-03-03 01:24:00,
2013-03-02 19:25:00,43.9,26.0,30.27,NNW,333,0.0,0.0,49,0.00,,,0.00,WeatherCatV1.24B11,2013-03-03 01:25:00,
2013-03-02 19:29:00,51.9,27.1,30.27,NNW,333,0.0,0.0,38,0.00,,,0.00,WeatherCatV1.14B232,2013-03-03 01:29:00,
2013-03-02 19:30:00,43.5,25.1,30.28,NNW,333,0.0,0.0,48,0.00,,,0.00,WeatherCatV1.24B11,2013-03-03 01:30:00,
2013-03-02 19:34:00,51.0,26.9,30.27,NNW,333,0.0,0.0,39,0.00,,,0.00,WeatherCatV1.14B232,2013-03-03 01:34:00,
2013-03-02 19:35:00,43.2,24.9,30.28,NNW,333,0.0,0.0,48,0.00,,,0.00,WeatherCatV1.24B11,2013-03-03 01:35:00,
2013-03-02 19:39:00,50.0,26.6,30.27,NNW,333,0.0,0.0,40,0.00,,,0.00,WeatherCatV1.14B232,2013-03-03 01:39:00,
2013-03-02 19:40:00,42.8,24.5,30.28,NNW,333,0.0,0.0,48,0.00,,,0.00,WeatherCatV1.24B11,2013-03-03 01:40:00,
2013-03-02 19:44:00,49.2,26.5,30.27,NNW,333,0.0,0.0,41,0.00,,,0.00,WeatherCatV1.14B232,2013-03-03 01:44:00,
2013-03-02 19:45:00,42.5,24.7,30.28,NNW,333,0.0,0.0,49,0.00,,,0.00,WeatherCatV1.24B11,2013-03-03 01:45:00,
2013-03-02 19:49:00,48.6,26.6,30.27,NNW,333,0.0,0.0,42,0.00,,,0.00,WeatherCatV1.14B232,2013-03-03 01:49:00,
2013-03-02 19:50:00,42.1,25.3,30.28,NNW,333,0.0,0.0,51,0.00,,,0.00,WeatherCatV1.24B11,2013-03-03 01:50:00,
2013-03-02 19:54:00,48.0,26.0,30.27,NNW,333,0.0,0.0,42,0.00,,,0.00,WeatherCatV1.14B232,2013-03-03 01:54:00,
2013-03-02 19:55:00,41.9,25.1,30.28,NNW,333,0.0,0.0,51,0.00,,,0.00,WeatherCatV1.24B11,2013-03-03 01:55:00,
2013-03-02 19:59:00,47.4,26.0,30.27,NNW,333,0.0,0.0,43,0.00,,,0.00,WeatherCatV1.14B232,2013-03-03 01:59:00,
2013-03-02 20:00:00,41.7,25.4,30.29,NNW,333,0.0,0.0,52,0.00,,,0.00,WeatherCatV1.24B11,2013-03-03 02:00:00,
2013-03-02 20:04:00,46.8,26.6,30.27,NNW,333,0.0,0.0,45,0.00,,,0.00,WeatherCatV1.14B232,2013-03-03 02:04:00,
2013-03-02 20:05:00,41.4,25.6,30.29,NNW,333,0.0,0.0,53,0.00,,,0.00,WeatherCatV1.24B11,2013-03-03 02:05:00,
2013-03-02 20:09:00,46.3,26.1,30.27,NNW,333,0.0,0.0,45,0.00,,,0.00,WeatherCatV1.14B232,2013-03-03 02:09:00,
2013-03-02 20:10:00,41.0,24.8,30.29,NNW,333,0.0,0.0,52,0.00,,,0.00,WeatherCatV1.24B11,2013-03-03 02:10:00,
2013-03-02 20:14:00,45.8,26.2,30.27,NNW,333,0.0,0.0,46,0.00,,,0.00,WeatherCatV1.14B232,2013-03-03 02:14:00,
2013-03-02 20:15:00,40.7,24.0,30.29,NNW,333,0.0,0.0,51,0.00,,,0.00,WeatherCatV1.24B11,2013-03-03 02:15:00,
2013-03-02 20:19:00,45.4,26.4,30.27,NNW,333,0.0,0.0,47,0.00,,,0.00,WeatherCatV1.14B232,2013-03-03 02:19:00,
2013-03-02 20:20:00,40.3,23.6,30.29,NNW,333,0.0,0.0,51,0.00,,,0.00,WeatherCatV1.24B11,2013-03-03 02:20:00,
2013-03-02 20:24:00,45.0,26.5,30.27,NNW,333,0.0,0.0,48,0.00,,,0.00,WeatherCatV1.14B232,2013-03-03 02:24:00,
2013-03-02 20:25:00,39.9,23.7,30.29,NNW,333,0.0,0.0,52,0.00,,,0.00,WeatherCatV1.24B11,2013-03-03 02:25:00,
2013-03-02 20:29:00,44.7,26.2,30.28,NNW,333,0.0,0.0,48,0.00,,,0.00,WeatherCatV1.14B232,2013-03-03 02:29:00,
2013-03-02 20:30:00,39.7,24.4,30.29,NNW,333,0.0,0.0,54,0.00,,,0.00,WeatherCatV1.24B11,2013-03-03 02:30:00,
2013-03-02 20:34:00,44.3,25.9,30.27,NNW,333,0.0,0.0,48,0.00,,,0.00,WeatherCatV1.14B232,2013-03-03 02:34:00,
2013-03-02 20:35:00,39.6,24.8,30.29,NNW,333,0.0,0.0,55,0.00,,,0.00,WeatherCatV1.24B11,2013-03-03 02:35:00,
2013-03-02 20:39:00,44.0,26.1,30.28,NNW,333,0.0,0.0,49,0.00,,,0.00,WeatherCatV1.14B232,2013-03-03 02:39:00,
2013-03-02 20:40:00,39.4,24.6,30.29,NNW,333,0.0,0.0,55,0.00,,,0.00,WeatherCatV1.24B11,2013-03-03 02:40:00,
2013-03-02 20:44:00,43.6,25.2,30.28,NNW,333,0.0,0.0,48,0.00,,,0.00,WeatherCatV1.14B232,2013-03-03 02:44:00,
2013-03-02 20:45:00,39.2,24.4,30.30,NNW,333,0.0,0.0,55,0.00,,,0.00,WeatherCatV1.24B11,2013-03-03 02:45:00,
2013-03-02 20:49:00,43.1,24.8,30.28,NNW,333,0.0,0.0,48,0.00,,,0.00,WeatherCatV1.14B232,2013-03-03 02:49:00,
2013-03-02 20:50:00,39.0,23.8,30.30,NNW,333,0.0,0.0,54,0.00,,,0.00,WeatherCatV1.24B11,2013-03-03 02:50:00,
2013-03-02 20:54:00,42.8,24.5,30.28,NNW,333,0.0,0.0,48,0.00,,,0.00,WeatherCatV1.14B232,2013-03-03 02:54:00,
2013-03-02 20:55:00,38.8,24.0,30.30,NNW,333,0.0,0.0,55,0.00,,,0.00,WeatherCatV1.24B11,2013-03-03 02:55:00,
2013-03-02 20:59:00,42.5,24.7,30.28,NNW,333,0.0,0.0,49,0.00,,,0.00,WeatherCatV1.14B232,2013-03-03 02:59:00,
2013-03-02 21:00:00,38.6,24.3,30.29,NNW,333,0.0,0.0,56,0.00,,,0.00,WeatherCatV1.24B11,2013-03-03 03:00:00,
2013-03-02 21:04:00,42.1,25.3,30.28,NNW,333,0.0,0.0,51,0.00,,,0.00,WeatherCatV1.14B232,2013-03-03 03:04:00,
2013-03-02 21:05:00,38.4,24.5,30.29,NNW,333,0.0,0.0,57,0.00,,,0.00,WeatherCatV1.24B11,2013-03-03 03:05:00,
2013-03-02 21:09:00,41.9,25.1,30.28,NNW,333,0.0,0.0,51,0.00,,,0.00,WeatherCatV1.14B232,2013-03-03 03:09:00,
2013-03-02 21:10:00,38.4,24.9,30.29,NNW,333,0.0,0.0,58,0.00,,,0.00,WeatherCatV1.24B11,2013-03-03 03:10:00,
2013-03-02 21:14:00,41.7,25.4,30.29,NNW,333,0.0,0.0,52,0.00,,,0.00,WeatherCatV1.14B232,2013-03-03 03:14:00,
2013-03-02 21:15:00,38.3,24.8,30.29,NNW,333,0.0,0.0,58,0.00,,,0.00,WeatherCatV1.24B11,2013-03-03 03:15:00,
2013-03-02 21:19:00,41.4,25.6,30.29,NNW,333,0.0,0.0,53,0.00,,,0.00,WeatherCatV1.14B232,2013-03-03 03:19:00,
2013-03-02 21:20:00,38.2,25.1,30.29,NNW,333,0.0,0.0,59,0.00,,,0.00,WeatherCatV1.24B11,2013-03-03 03:20:00,
2013-03-02 21:24:00,41.1,24.8,30.29,NNW,333,0.0,0.0,52,0.00,,,0.00,WeatherCatV1.14B232,2013-03-03 03:24:00,
2013-03-02 21:25:00,38.1,25.0,30.29,NNW,333,0.0,0.0,59,0.00,,,0.00,WeatherCatV1.24B11,2013-03-03 03:25:00,
2013-03-02 21:29:00,40.7,24.0,30.29,NNW,333,0.0,0.0,51,0.00,,,0.00,WeatherCatV1.14B232,2013-03-03 03:29:00,
2013-03-02 21:30:00,37.9,24.9,30.29,NNW,333,0.0,0.0,59,0.00,,,0.00,WeatherCatV1.24B11,2013-03-03 03:30:00,
2013-03-02 21:34:00,40.3,23.6,30.29,NNW,333,0.0,0.0,51,0.00,,,0.00,WeatherCatV1.14B232,2013-03-03 03:34:00,
2013-03-02 21:35:00,37.8,25.2,30.29,NNW,333,0.0,0.0,60,0.00,,,0.00,WeatherCatV1.24B11,2013-03-03 03:35:00,
2013-03-02 21:39:00,40.0,23.8,30.29,NNW,333,0.0,0.0,52,0.00,,,0.00,WeatherCatV1.14B232,2013-03-03 03:39:00,
2013-03-02 21:40:00,37.7,25.1,30.29,NNW,333,0.0,0.0,60,0.00,,,0.00,WeatherCatV1.24B11,2013-03-03 03:40:00,
2013-03-02 21:44:00,39.7,24.0,30.29,NNW,333,0.0,0.0,53,0.00,,,0.00,WeatherCatV1.14B232,2013-03-03 03:44:00,
2013-03-02 21:45:00,37.6,25.4,30.29,NNW,333,0.0,0.0,61,0.00,,,0.00,WeatherCatV1.24B11,2013-03-03 03:45:00,
2013-03-02 21:49:00,39.6,24.8,30.29,NNW,333,0.0,0.0,55,0.00,,,0.00,WeatherCatV1.14B232,2013-03-03 03:49:00,
2013-03-02 21:50:00,37.5,24.5,30.29,NNW,333,0.0,0.0,59,0.00,,,0.00,WeatherCatV1.24B11,2013-03-03 03:50:00,
2013-03-02 21:54:00,39.4,24.6,30.29,NNW,333,0.0,0.0,55,0.00,,,0.00,WeatherCatV1.14B232,2013-03-03 03:54:00,
2013-03-02 21:55:00,37.4,24.8,30.29,NNW,333,0.0,0.0,60,0.00,,,0.00,WeatherCatV1.24B11,2013-03-03 03:55:00,
2013-03-02 21:59:00,39.2,24.4,30.30,NNW,333,0.0,0.0,55,0.00,,,0.00,WeatherCatV1.14B232,2013-03-03 03:59:00,
2013-03-02 22:00:00,37.5,24.9,30.29,NNW,333,0.0,0.0,60,0.00,,,0.00,WeatherCatV1.24B11,2013-03-03 04:00:00,
2013-03-02 22:04:00,39.0,23.8,30.30,NNW,333,0.0,0.0,54,0.00,,,0.00,WeatherCatV1.14B232,2013-03-03 04:04:00,
2013-03-02 22:05:00,37.7,25.1,30.29,NNW,333,0.0,0.0,60,0.00,,,0.00,WeatherCatV1.24B11,2013-03-03 04:05:00,
2013-03-02 22:09:00,38.8,24.0,30.30,NNW,333,0.0,0.0,55,0.00,,,0.00,WeatherCatV1.14B232,2013-03-03 04:09:00,
2013-03-02 22:10:00,37.6,24.6,30.29,NNW,333,0.0,0.0,59,0.00,,,0.00,WeatherCatV1.24B11,2013-03-03 04:10:00,
2013-03-02 22:14:00,38.6,24.3,30.29,NNW,333,0.0,0.0,56,0.00,,,0.00,WeatherCatV1.14B232,2013-03-03 04:14:00,
2013-03-02 22:15:00,37.5,24.9,30.29,NNW,333,0.0,0.0,60,0.00,,,0.00,WeatherCatV1.24B11,2013-03-03 04:15:00,
2013-03-02 22:19:00,38.5,24.6,30.29,NNW,333,0.0,0.0,57,0.00,,,0.00,WeatherCatV1.14B232,2013-03-03 04:19:00,
2013-03-02 22:20:00,37.5,24.9,30.29,NNW,333,0.0,0.0,60,0.00,,,0.00,WeatherCatV1.24B11,2013-03-03 04:20:00,
2013-03-02 22:24:00,38.4,24.9,30.29,NNW,333,0.0,0.0,58,0.00,,,0.00,WeatherCatV1.14B232,2013-03-03 04:24:00,
2013-03-02 22:25:00,37.4,24.8,30.29,NNW,333,0.0,0.0,60,0.00,,,0.00,WeatherCatV1.24B11,2013-03-03 04:25:00,
2013-03-02 22:29:00,38.3,24.8,30.29,NNW,333,0.0,0.0,58,0.00,,,0.00,WeatherCatV1.14B232,2013-03-03 04:29:00,
2013-03-02 22:30:00,37.3,25.1,30.29,NNW,333,0.0,0.0,61,0.00,,,0.00,WeatherCatV1.24B11,2013-03-03 04:30:00,
2013-03-02 22:34:00,38.2,25.2,30.29,NNW,333,0.0,0.0,59,0.00,,,0.00,WeatherCatV1.14B232,2013-03-03 04:34:00,
2013-03-02 22:35:00,37.1,24.9,30.28,NNW,333,0.0,0.0,61,0.00,,,0.00,WeatherCatV1.24B11,2013-03-03 04:35:00,
2013-03-02 22:39:00,38.0,25.0,30.29,NNW,333,0.0,0.0,59,0.00,,,0.00,WeatherCatV1.14B232,2013-03-03 04:39:00,
2013-03-02 22:40:00,37.0,24.4,30.28,NNW,333,0.0,0.0,60,0.00,,,0.00,WeatherCatV1.24B11,2013-03-03 04:40:00,
2013-03-02 22:44:00,37.9,25.3,30.29,NNW,333,0.0,0.0,60,0.00,,,0.00,WeatherCatV1.14B232,2013-03-03 04:44:00,
2013-03-02 22:45:00,36.8,24.6,30.28,NNW,333,0.0,0.0,61,0.00,,,0.00,WeatherCatV1.24B11,2013-03-03 04:45:00,
2013-03-02 22:49:00,37.8,25.2,30.29,NNW,333,0.0,0.0,60,0.00,,,0.00,WeatherCatV1.14B232,2013-03-03 04:49:00,
2013-03-02 22:50:00,36.7,24.1,30.28,NNW,333,0.0,0.0,60,0.00,,,0.00,WeatherCatV1.24B11,2013-03-03 04:50:00,
2013-03-02 22:54:00,37.7,25.1,30.29,NNW,333,0.0,0.0,60,0.00,,,0.00,WeatherCatV1.14B232,2013-03-03 04:54:00,
2013-03-02 22:55:00,36.6,24.0,30.28,NNW,333,0.0,0.0,60,0.00,,,0.00,WeatherCatV1.24B11,2013-03-03 04:55:00,
2013-03-02 22:59:00,37.6,25.4,30.29,NNW,333,0.0,0.0,61,0.00,,,0.00,WeatherCatV1.14B232,2013-03-03 04:59:00,
2013-03-02 23:00:00,37.6,25.4,30.29,NNW,333,0.0,0.0,61,0.00,,,0.00,WeatherCatV1.14B232,2013-03-03 05:00:00,
2013-03-02 23:05:00,37.5,24.5,30.29,NNW,333,0.0,0.0,59,0.00,,,0.00,WeatherCatV1.14B232,2013-03-03 05:05:00,
2013-03-02 23:10:00,37.4,24.8,30.29,NNW,333,0.0,0.0,60,0.00,,,0.00,WeatherCatV1.14B232,2013-03-03 05:10:00,
2013-03-02 23:15:00,37.6,25.0,30.29,NNW,333,0.0,0.0,60,0.00,,,0.00,WeatherCatV1.14B232,2013-03-03 05:15:00,
2013-03-02 23:20:00,37.7,24.7,30.29,NNW,333,0.0,0.0,59,0.00,,,0.00,WeatherCatV1.14B232,2013-03-03 05:20:00,
2013-03-02 23:25:00,37.5,24.5,30.29,NNW,333,0.0,0.0,59,0.00,,,0.00,WeatherCatV1.14B232,2013-03-03 05:25:00,
2013-03-02 23:30:00,37.6,25.0,30.29,NNW,333,0.0,0.0,60,0.00,,,0.00,WeatherCatV1.14B232,2013-03-03 05:30:00,
2013-03-02 23:35:00,37.5,24.9,30.29,NNW,333,0.0,0.0,60,0.00,,,0.00,WeatherCatV1.14B232,2013-03-03 05:35:00,
2013-03-02 23:40:00,37.4,24.8,30.29,NNW,333,0.0,0.0,60,0.00,,,0.00,WeatherCatV1.14B232,2013-03-03 05:40:00,
2013-03-02 23:45:00,37.2,25.0,30.29,NNW,333,0.0,0.0,61,0.00,,,0.00,WeatherCatV1.14B232,2013-03-03 05:45:00,
2013-03-02 23:50:00,37.1,25.3,30.28,NNW,333,0.0,0.0,62,0.00,,,0.00,WeatherCatV1.14B232,2013-03-03 05:50:00,
2013-03-02 23:55:00,37.0,24.8,30.28,NNW,333,0.0,0.0,61,0.00,,,0.00,WeatherCatV1.14B232,2013-03-03 05:55:00,